createdAt,value
2023-05-10T00:01:55.534Z,14.05
2023-05-10T00:04:22.378Z,14.09
2023-05-10T00:06:48.785Z,14.25
2023-05-10T00:09:15.128Z,14.43
2023-05-10T00:11:41.511Z,14.21
2023-05-10T00:14:07.868Z,14.20
2023-05-10T00:16:34.522Z,14.34
2023-05-10T00:19:00.902Z,14.16
2023-05-10T00:21:29.099Z,14.28
2023-05-10T00:23:55.722Z,13.96
2023-05-10T00:26:22.062Z,14.05
2023-05-10T00:28:48.464Z,14.13
2023-05-10T00:31:15.633Z,13.82
2023-05-10T00:33:42.002Z,13.82
2023-05-10T00:36:08.554Z,13.91
2023-05-10T00:38:34.999Z,13.93
2023-05-10T00:41:01.473Z,13.91
2023-05-10T00:43:27.803Z,13.95
2023-05-10T00:45:54.443Z,13.87
2023-05-10T00:48:21.622Z,14.11
2023-05-10T00:50:48.118Z,14.00
2023-05-10T00:53:16.034Z,14.07
2023-05-10T00:55:42.684Z,14.02
2023-05-10T00:58:09.377Z,14.00
2023-05-10T01:00:37.246Z,14.15
2023-05-10T01:03:03.824Z,14.13
2023-05-10T01:05:30.464Z,14.06
2023-05-10T01:07:57.263Z,14.08
2023-05-10T01:10:23.730Z,14.11
2023-05-10T01:12:50.427Z,14.05
2023-05-10T01:15:18.039Z,14.01
2023-05-10T01:17:46.516Z,13.99
2023-05-10T01:20:13.554Z,13.97
2023-05-10T01:23:11.149Z,13.95
2023-05-10T01:25:49.784Z,14.05
2023-05-10T01:28:35.221Z,14.23
2023-05-10T01:31:18.169Z,14.30
2023-05-10T01:34:00.094Z,14.31
2023-05-10T01:36:32.640Z,14.12
2023-05-10T01:39:26.581Z,14.15
2023-05-10T01:42:06.173Z,14.03
2023-05-10T01:44:38.383Z,13.87
2023-05-10T01:47:13.872Z,14.08
2023-05-10T01:49:48.719Z,14.16
2023-05-10T01:52:20.166Z,14.25
2023-05-10T01:54:54.791Z,14.31
2023-05-10T01:57:23.223Z,14.42
2023-05-10T01:59:51.581Z,14.34
2023-05-10T02:02:21.481Z,14.39
2023-05-10T02:04:48.603Z,14.67
2023-05-10T02:07:15.505Z,14.68
2023-05-10T02:09:45.012Z,14.50
2023-05-10T02:12:14.598Z,14.43
2023-05-10T02:14:43.407Z,14.39
2023-05-10T02:17:10.811Z,14.45
2023-05-10T02:19:39.733Z,14.43
2023-05-10T02:22:07.350Z,14.52
2023-05-10T02:24:35.520Z,14.50
2023-05-10T02:27:04.184Z,14.57
2023-05-10T02:29:33.190Z,14.42
2023-05-10T02:32:00.948Z,14.37
2023-05-10T02:34:28.667Z,14.48
2023-05-10T02:36:56.200Z,14.68
2023-05-10T02:39:24.450Z,14.74
2023-05-10T02:41:53.176Z,14.62
2023-05-10T02:44:21.331Z,14.48
2023-05-10T02:46:47.969Z,14.53
2023-05-10T02:49:14.917Z,14.62
2023-05-10T02:51:56.336Z,14.79
2023-05-10T02:54:28.588Z,14.73
2023-05-10T02:56:58.021Z,14.96
2023-05-10T02:59:24.433Z,14.90
2023-05-10T03:01:50.875Z,14.67
2023-05-10T03:04:17.382Z,14.75
2023-05-10T03:06:44.650Z,14.68
2023-05-10T03:09:13.184Z,14.85
2023-05-10T03:12:19.565Z,14.70
2023-05-10T03:14:53.792Z,14.58
2023-05-10T03:17:47.942Z,14.57
2023-05-10T03:20:23.260Z,14.47
2023-05-10T03:22:56.193Z,14.48
2023-05-10T03:25:23.942Z,14.17
2023-05-10T03:27:50.924Z,14.14
2023-05-10T03:30:18.329Z,13.91
2023-05-10T03:32:45.228Z,13.89
2023-05-10T03:35:13.521Z,13.87
2023-05-10T03:37:40.022Z,13.82
2023-05-10T03:40:08.425Z,13.88
2023-05-10T03:42:34.953Z,13.97
2023-05-10T03:45:01.409Z,13.98
2023-05-10T03:47:27.843Z,13.87
2023-05-10T03:49:54.193Z,13.77
2023-05-10T03:52:20.686Z,13.83
2023-05-10T03:54:47.022Z,13.75
2023-05-10T03:57:13.354Z,13.78
2023-05-10T03:59:39.806Z,13.85
2023-05-10T04:02:06.707Z,13.84
2023-05-10T04:04:33.132Z,13.74
2023-05-10T04:06:59.489Z,13.63
2023-05-10T04:09:26.204Z,13.70
2023-05-10T04:11:52.564Z,13.64
2023-05-10T04:14:18.949Z,13.68
2023-05-10T04:16:45.905Z,13.53
2023-05-10T04:19:12.530Z,13.53
2023-05-10T04:21:38.908Z,13.60
2023-05-10T04:24:05.456Z,13.57
2023-05-10T04:26:32.210Z,13.56
2023-05-10T04:28:58.546Z,13.50
2023-05-10T04:31:24.997Z,13.62
2023-05-10T04:33:51.396Z,13.63
2023-05-10T04:36:17.760Z,13.66
2023-05-10T04:38:44.609Z,13.72
2023-05-10T04:41:11.715Z,13.64
2023-05-10T04:43:39.286Z,13.64
2023-05-10T04:46:06.776Z,13.69
2023-05-10T04:48:33.355Z,13.71
2023-05-10T04:50:59.796Z,13.64
2023-05-10T04:53:26.241Z,13.68
2023-05-10T04:55:52.623Z,13.66
2023-05-10T04:58:19.019Z,13.66
2023-05-10T05:00:45.386Z,13.66
2023-05-10T05:03:11.864Z,13.62
2023-05-10T05:05:38.255Z,13.65
2023-05-10T05:08:04.937Z,13.50
2023-05-10T05:10:31.275Z,13.45
2023-05-10T05:12:57.877Z,13.52
2023-05-10T05:15:24.354Z,13.51
2023-05-10T05:17:50.718Z,13.45
2023-05-10T05:20:17.621Z,13.50
2023-05-10T05:22:44.171Z,13.27
2023-05-10T05:25:10.679Z,13.36
2023-05-10T05:27:37.018Z,13.37
2023-05-10T05:30:03.696Z,13.41
2023-05-10T05:32:30.131Z,13.49
2023-05-10T05:34:56.694Z,13.57
2023-05-10T05:37:23.616Z,13.62
2023-05-10T05:39:49.974Z,13.64
2023-05-10T05:42:17.529Z,13.60
2023-05-10T05:44:44.077Z,13.63
2023-05-10T05:47:10.417Z,13.75
2023-05-10T05:49:36.797Z,13.82
2023-05-10T05:52:05.049Z,13.83
2023-05-10T05:54:32.360Z,13.93
2023-05-10T05:57:01.207Z,13.55
2023-05-10T05:59:28.038Z,13.67
2023-05-10T06:01:54.543Z,13.46
2023-05-10T06:04:20.921Z,13.47
2023-05-10T06:06:47.285Z,13.61
2023-05-10T06:09:13.870Z,13.61
2023-05-10T06:11:40.183Z,13.51
2023-05-10T06:14:08.073Z,13.52
2023-05-10T06:16:35.883Z,13.36
2023-05-10T06:19:03.190Z,13.49
2023-05-10T06:21:29.888Z,13.44
2023-05-10T06:23:56.217Z,13.56
2023-05-10T06:26:22.576Z,13.28
2023-05-10T06:28:49.001Z,13.46
2023-05-10T06:31:15.443Z,13.52
2023-05-10T06:33:41.811Z,13.58
2023-05-10T06:36:08.195Z,13.71
2023-05-10T06:38:34.537Z,13.61
2023-05-10T06:41:01.503Z,13.78
2023-05-10T06:43:29.466Z,13.87
2023-05-10T06:45:55.834Z,13.95
2023-05-10T06:48:22.302Z,13.70
2023-05-10T06:50:48.728Z,13.63
2023-05-10T06:53:15.051Z,13.78
2023-05-10T06:55:41.360Z,13.87
2023-05-10T06:58:07.716Z,14.02
2023-05-10T07:00:34.120Z,13.87
2023-05-10T07:03:00.520Z,13.67
2023-05-10T07:05:28.845Z,13.33
2023-05-10T07:07:55.454Z,13.42
2023-05-10T07:10:21.799Z,13.37
2023-05-10T07:12:48.302Z,13.58
2023-05-10T07:15:14.858Z,13.45
2023-05-10T07:17:43.268Z,13.11
2023-05-10T07:20:11.985Z,13.06
2023-05-10T07:22:38.354Z,13.05
2023-05-10T07:25:05.286Z,13.14
2023-05-10T07:27:31.649Z,13.15
2023-05-10T07:29:58.023Z,13.32
2023-05-10T07:32:24.706Z,13.21
2023-05-10T07:34:51.125Z,13.19
2023-05-10T07:37:17.501Z,13.19
2023-05-10T07:39:44.050Z,13.07
2023-05-10T07:42:10.372Z,13.05
2023-05-10T07:44:36.711Z,13.26
2023-05-10T07:47:03.037Z,13.33
2023-05-10T07:49:29.529Z,13.01
2023-05-10T07:51:55.886Z,13.00
2023-05-10T07:54:22.489Z,13.13
2023-05-10T07:56:49.149Z,13.06
2023-05-10T07:59:17.660Z,12.94
2023-05-10T08:01:44.811Z,13.17
2023-05-10T08:04:11.321Z,13.33
2023-05-10T08:06:37.913Z,13.19
2023-05-10T08:09:04.256Z,13.07
2023-05-10T08:11:31.164Z,13.22
2023-05-10T08:13:57.742Z,13.31
2023-05-10T08:16:24.151Z,13.41
2023-05-10T08:18:51.643Z,13.49
2023-05-10T08:21:18.223Z,13.52
2023-05-10T08:23:45.292Z,13.45
2023-05-10T08:26:11.999Z,13.60
2023-05-10T08:28:38.454Z,13.61
2023-05-10T08:31:06.216Z,13.39
2023-05-10T08:33:32.752Z,13.41
2023-05-10T08:35:59.114Z,13.56
2023-05-10T08:38:26.044Z,13.63
2023-05-10T08:40:57.268Z,13.71
2023-05-10T08:43:28.284Z,13.60
2023-05-10T08:45:56.297Z,13.43
2023-05-10T08:48:24.968Z,13.81
2023-05-10T08:50:54.578Z,13.73
2023-05-10T08:53:21.927Z,13.63
2023-05-10T08:55:48.366Z,13.71
2023-05-10T08:58:15.028Z,13.81
2023-05-10T09:00:41.678Z,13.91
2023-05-10T09:03:08.123Z,14.02
2023-05-10T09:05:34.632Z,14.13
2023-05-10T09:08:03.892Z,13.97
2023-05-10T09:10:31.753Z,13.99
2023-05-10T09:12:59.531Z,14.14
2023-05-10T09:15:26.542Z,14.20
2023-05-10T09:17:53.190Z,14.21
2023-05-10T09:20:19.785Z,14.26
2023-05-10T09:22:46.172Z,14.12
2023-05-10T09:25:14.757Z,14.08
2023-05-10T09:27:45.808Z,13.89
2023-05-10T09:30:17.098Z,13.95
2023-05-10T09:32:46.017Z,13.85
2023-05-10T09:35:17.960Z,13.94
2023-05-10T09:37:47.139Z,14.03
2023-05-10T09:40:16.945Z,13.94
2023-05-10T09:42:51.627Z,14.06
2023-05-10T09:45:18.224Z,13.91
2023-05-10T09:47:45.379Z,13.88
2023-05-10T09:50:11.727Z,14.02
2023-05-10T09:52:48.038Z,14.16
2023-05-10T09:55:16.523Z,14.17
2023-05-10T09:57:43.152Z,14.17
2023-05-10T10:00:11.120Z,13.98
2023-05-10T10:02:37.627Z,13.98
2023-05-10T10:05:04.695Z,13.85
2023-05-10T10:07:31.447Z,14.01
2023-05-10T10:09:59.394Z,14.12
2023-05-10T10:12:26.504Z,14.17
2023-05-10T10:14:53.864Z,13.95
2023-05-10T10:17:20.875Z,14.02
2023-05-10T10:19:49.189Z,14.00
2023-05-10T10:22:15.514Z,14.07
2023-05-10T10:24:42.542Z,14.11
2023-05-10T10:27:17.634Z,14.31
2023-05-10T10:29:59.737Z,14.51
2023-05-10T10:32:28.724Z,14.59
2023-05-10T10:34:56.086Z,14.72
2023-05-10T10:37:22.741Z,14.60
2023-05-10T10:39:51.201Z,14.53
2023-05-10T10:42:50.874Z,14.77
2023-05-10T10:45:17.486Z,14.79
2023-05-10T10:47:45.048Z,14.43
2023-05-10T10:50:13.744Z,14.55
2023-05-10T10:52:46.908Z,14.73
2023-05-10T10:55:20.705Z,14.61
2023-05-10T10:57:52.662Z,14.75
2023-05-10T11:00:28.459Z,14.88
2023-05-10T11:03:09.948Z,15.01
2023-05-10T11:05:49.205Z,15.23
2023-05-10T11:08:28.986Z,14.89
2023-05-10T11:11:01.173Z,14.77
2023-05-10T11:13:32.626Z,14.93
2023-05-10T11:16:00.221Z,14.66
2023-05-10T11:18:30.625Z,14.96
2023-05-10T11:21:03.596Z,15.30
2023-05-10T11:23:48.011Z,15.50
2023-05-10T11:26:14.673Z,15.24
2023-05-10T11:28:45.263Z,15.52
2023-05-10T11:31:14.136Z,15.49
2023-05-10T11:33:56.985Z,15.03
2023-05-10T11:36:28.320Z,15.04
2023-05-10T11:38:56.225Z,15.27
2023-05-10T11:41:24.298Z,15.35
2023-05-10T11:43:52.353Z,15.57
2023-05-10T11:46:21.408Z,15.41
2023-05-10T11:48:51.326Z,15.06
2023-05-10T11:51:22.070Z,15.27
2023-05-10T11:53:48.509Z,15.30
2023-05-10T11:56:14.875Z,15.38
2023-05-10T11:58:41.242Z,15.19
2023-05-10T12:01:09.901Z,15.44
2023-05-10T12:03:37.235Z,15.53
2023-05-10T12:06:04.379Z,15.45
2023-05-10T12:08:31.725Z,15.19
2023-05-10T12:11:09.443Z,15.42
2023-05-10T12:13:42.603Z,15.72
2023-05-10T12:16:23.750Z,15.78
2023-05-10T12:18:55.083Z,15.60
2023-05-10T12:21:22.054Z,15.72
2023-05-10T12:23:52.138Z,15.44
2023-05-10T12:26:19.056Z,15.68
2023-05-10T12:28:46.010Z,15.90
2023-05-10T12:31:12.446Z,15.86
2023-05-10T12:33:44.722Z,15.90
2023-05-10T12:36:15.792Z,15.98
2023-05-10T12:38:44.264Z,16.17
2023-05-10T12:41:15.651Z,16.12
2023-05-10T12:43:42.336Z,15.81
2023-05-10T12:46:13.714Z,16.07
2023-05-10T12:48:41.932Z,16.16
2023-05-10T12:51:13.926Z,16.18
2023-05-10T12:53:41.806Z,16.55
2023-05-10T12:56:10.775Z,16.70
2023-05-10T12:58:37.104Z,16.78
2023-05-10T13:01:04.108Z,16.98
2023-05-10T13:03:30.652Z,17.19
2023-05-10T13:05:57.167Z,16.79
2023-05-10T13:08:23.626Z,16.65
2023-05-10T13:10:50.238Z,16.68
2023-05-10T13:13:16.651Z,16.24
2023-05-10T13:15:43.066Z,16.23
2023-05-10T13:18:09.445Z,16.44
2023-05-10T13:20:35.948Z,16.23
2023-05-10T13:23:03.412Z,16.21
2023-05-10T13:25:29.857Z,15.89
2023-05-10T13:27:56.208Z,15.79
2023-05-10T13:30:22.615Z,16.10
2023-05-10T13:32:49.064Z,16.31
2023-05-10T13:35:15.637Z,16.52
2023-05-10T13:37:42.112Z,16.34
2023-05-10T13:40:08.968Z,16.73
2023-05-10T13:42:35.699Z,16.90
2023-05-10T13:45:02.683Z,17.03
2023-05-10T13:47:29.442Z,17.07
2023-05-10T13:49:56.105Z,17.02
2023-05-10T13:52:22.666Z,16.89
2023-05-10T13:54:49.108Z,16.04
2023-05-10T13:57:17.559Z,16.16
2023-05-10T13:59:43.900Z,16.25
2023-05-10T14:02:10.442Z,16.53
2023-05-10T14:04:36.858Z,16.07
2023-05-10T14:07:03.208Z,16.31
2023-05-10T14:09:29.565Z,16.45
2023-05-10T14:11:56.717Z,16.83
2023-05-10T14:14:23.094Z,16.55
2023-05-10T14:16:49.654Z,16.72
2023-05-10T14:19:16.150Z,17.00
2023-05-10T14:21:42.490Z,17.01
2023-05-10T14:24:08.833Z,17.40
2023-05-10T14:26:35.524Z,17.00
2023-05-10T14:29:02.027Z,17.05
2023-05-10T14:31:28.524Z,17.04
2023-05-10T14:33:54.940Z,17.19
2023-05-10T14:36:21.253Z,17.42
2023-05-10T14:38:47.623Z,17.20
2023-05-10T14:41:15.957Z,17.50
2023-05-10T14:43:42.298Z,17.72
2023-05-10T14:46:09.507Z,17.74
2023-05-10T14:48:36.065Z,18.03
2023-05-10T14:51:02.902Z,18.10
2023-05-10T14:53:29.679Z,18.02
2023-05-10T14:55:56.037Z,17.75
2023-05-10T14:58:22.429Z,17.07
2023-05-10T15:00:48.759Z,17.24
2023-05-10T15:03:15.422Z,16.86
2023-05-10T15:05:42.351Z,16.67
2023-05-10T15:08:10.085Z,16.78
2023-05-10T15:10:37.602Z,16.65
2023-05-10T15:13:05.057Z,16.82
2023-05-10T15:15:31.641Z,16.90
2023-05-10T15:17:58.078Z,17.19
2023-05-10T15:20:24.449Z,16.93
2023-05-10T15:22:51.056Z,16.34
2023-05-10T15:25:18.049Z,16.45
2023-05-10T15:27:44.702Z,16.76
2023-05-10T15:30:11.695Z,16.82
2023-05-10T15:32:38.212Z,16.71
2023-05-10T15:35:04.950Z,16.53
2023-05-10T15:37:31.289Z,16.27
2023-05-10T15:40:04.217Z,16.26
2023-05-10T15:42:31.492Z,16.19
2023-05-10T15:44:58.062Z,16.29
2023-05-10T15:47:25.481Z,16.28
2023-05-10T15:49:51.944Z,16.51
2023-05-10T15:52:19.141Z,16.25
2023-05-10T15:54:45.536Z,16.45
2023-05-10T15:57:11.911Z,16.45
2023-05-10T15:59:38.259Z,16.35
2023-05-10T16:02:04.597Z,16.07
2023-05-10T16:04:30.927Z,15.84
2023-05-10T16:06:57.271Z,15.83
2023-05-10T16:09:23.601Z,16.06
2023-05-10T16:11:49.927Z,15.88
2023-05-10T16:14:17.000Z,16.01
2023-05-10T16:16:43.458Z,15.92
2023-05-10T16:19:09.914Z,16.07
2023-05-10T16:21:36.441Z,16.32
2023-05-10T16:24:03.120Z,16.47
2023-05-10T16:26:29.467Z,16.60
2023-05-10T16:28:56.950Z,16.85
2023-05-10T16:31:23.427Z,16.69
2023-05-10T16:33:49.815Z,16.67
2023-05-10T16:36:16.133Z,17.02
2023-05-10T16:38:42.527Z,16.83
2023-05-10T16:41:08.827Z,16.57
2023-05-10T16:43:35.681Z,16.20
2023-05-10T16:46:02.361Z,16.41
2023-05-10T16:48:28.701Z,16.33
2023-05-10T16:50:55.080Z,16.25
2023-05-10T16:53:21.730Z,16.12
2023-05-10T16:55:48.118Z,16.44
2023-05-10T16:58:14.487Z,16.45
2023-05-10T17:00:41.289Z,16.37
2023-05-10T17:03:07.767Z,16.05
2023-05-10T17:05:34.236Z,15.78
2023-05-10T17:08:00.792Z,15.85
2023-05-10T17:10:27.167Z,15.88
2023-05-10T17:12:53.655Z,16.17
2023-05-10T17:15:20.643Z,15.94
2023-05-10T17:17:47.935Z,15.84
2023-05-10T17:20:14.328Z,15.97
2023-05-10T17:22:41.508Z,15.57
2023-05-10T17:25:08.281Z,15.56
2023-05-10T17:27:34.661Z,15.58
2023-05-10T17:30:00.984Z,15.25
2023-05-10T17:32:27.342Z,15.42
2023-05-10T17:34:53.702Z,15.24
2023-05-10T17:37:20.049Z,15.38
2023-05-10T17:39:46.461Z,15.29
2023-05-10T17:42:13.605Z,15.37
2023-05-10T17:44:39.960Z,15.23
2023-05-10T17:47:06.400Z,14.85
2023-05-10T17:49:32.806Z,15.06
2023-05-10T17:51:59.173Z,14.98
2023-05-10T17:54:25.499Z,15.05
2023-05-10T17:56:51.848Z,15.49
2023-05-10T17:59:18.176Z,15.77
2023-05-10T18:01:44.602Z,15.93
2023-05-10T18:04:11.039Z,15.81
2023-05-10T18:06:38.111Z,15.75
2023-05-10T18:09:07.099Z,15.85
2023-05-10T18:11:35.063Z,15.35
2023-05-10T18:14:01.398Z,15.31
2023-05-10T18:16:27.811Z,15.08
2023-05-10T18:18:54.229Z,15.02
2023-05-10T18:21:20.599Z,14.88
2023-05-10T18:23:46.919Z,14.95
2023-05-10T18:26:13.475Z,14.86
2023-05-10T18:28:39.804Z,14.77
2023-05-10T18:31:06.166Z,14.92
2023-05-10T18:33:32.557Z,15.23
2023-05-10T18:35:58.987Z,15.25
2023-05-10T18:38:25.422Z,15.15
2023-05-10T18:40:51.824Z,15.58
2023-05-10T18:43:18.147Z,15.46
2023-05-10T18:45:44.451Z,15.85
2023-05-10T18:48:10.813Z,16.04
2023-05-10T18:50:37.201Z,16.16
2023-05-10T18:53:03.558Z,16.11
2023-05-10T18:55:29.950Z,15.40
2023-05-10T18:57:56.335Z,15.33
2023-05-10T19:00:22.771Z,15.43
2023-05-10T19:02:49.145Z,15.19
2023-05-10T19:05:15.937Z,15.59
2023-05-10T19:07:43.816Z,15.64
2023-05-10T19:10:12.794Z,14.92
2023-05-10T19:12:43.514Z,14.55
2023-05-10T19:15:10.418Z,14.58
2023-05-10T19:17:39.319Z,14.84
2023-05-10T19:20:06.918Z,14.35
2023-05-10T19:22:47.195Z,14.27
2023-05-10T19:25:20.215Z,14.49
2023-05-10T19:27:46.869Z,14.23
2023-05-10T19:30:13.388Z,14.07
2023-05-10T19:32:40.047Z,14.44
2023-05-10T19:35:06.598Z,14.25
2023-05-10T19:37:32.959Z,14.42
2023-05-10T19:39:59.524Z,14.27
2023-05-10T19:42:26.101Z,14.53
2023-05-10T19:44:52.565Z,14.43
2023-05-10T19:47:18.921Z,14.31
2023-05-10T19:49:45.335Z,14.57
2023-05-10T19:52:12.136Z,14.76
2023-05-10T19:54:38.487Z,14.55
2023-05-10T19:57:04.925Z,14.52
2023-05-10T19:59:31.418Z,14.63
2023-05-10T20:01:57.742Z,14.74
2023-05-10T20:04:24.185Z,14.56
2023-05-10T20:06:50.555Z,14.43
2023-05-10T20:09:16.891Z,14.64
2023-05-10T20:11:43.222Z,14.76
2023-05-10T20:14:09.626Z,14.70
2023-05-10T20:16:35.998Z,14.43
2023-05-10T20:19:02.653Z,14.57
2023-05-10T20:21:29.026Z,14.49
2023-05-10T20:23:55.379Z,14.43
2023-05-10T20:26:21.865Z,14.45
2023-05-10T20:28:48.202Z,14.52
2023-05-10T20:31:14.599Z,14.50
2023-05-10T20:33:40.919Z,14.35
2023-05-10T20:36:09.427Z,14.38
2023-05-10T20:38:36.168Z,14.22
2023-05-10T20:41:02.546Z,14.19
2023-05-10T20:43:29.115Z,14.43
2023-05-10T20:45:55.536Z,14.45
2023-05-10T20:48:21.879Z,14.56
2023-05-10T20:50:48.263Z,14.36
2023-05-10T20:53:14.666Z,14.29
2023-05-10T20:55:41.016Z,14.32
2023-05-10T20:58:07.432Z,14.24
2023-05-10T21:00:33.792Z,14.35
2023-05-10T21:03:00.267Z,14.63
2023-05-10T21:05:26.812Z,14.55
2023-05-10T21:07:54.145Z,14.72
2023-05-10T21:10:21.430Z,14.47
2023-05-10T21:12:47.890Z,14.31
2023-05-10T21:15:14.235Z,14.08
2023-05-10T21:17:40.591Z,14.07
2023-05-10T21:20:07.800Z,14.05
2023-05-10T21:22:34.137Z,14.09
2023-05-10T21:25:00.767Z,13.95
2023-05-10T21:27:27.122Z,13.89
2023-05-10T21:29:53.572Z,13.71
2023-05-10T21:32:19.977Z,13.65
2023-05-10T21:34:46.541Z,13.43
2023-05-10T21:37:13.029Z,13.57
2023-05-10T21:39:39.354Z,13.68
2023-05-10T21:42:05.929Z,13.58
2023-05-10T21:44:32.459Z,13.81
2023-05-10T21:46:58.882Z,13.73
2023-05-10T21:49:25.375Z,13.80
2023-05-10T21:51:52.015Z,14.06
2023-05-10T21:54:18.443Z,13.92
2023-05-10T21:56:44.874Z,13.83
2023-05-10T21:59:11.210Z,13.61
2023-05-10T22:01:37.555Z,13.64
2023-05-10T22:04:03.939Z,13.24
2023-05-10T22:06:30.672Z,13.09
2023-05-10T22:08:57.020Z,13.22
2023-05-10T22:11:23.619Z,13.22
2023-05-10T22:13:49.981Z,13.28
2023-05-10T22:16:16.426Z,13.30
2023-05-10T22:18:43.475Z,13.12
2023-05-10T22:21:10.487Z,13.00
2023-05-10T22:23:36.859Z,13.03
2023-05-10T22:26:03.730Z,13.06
2023-05-10T22:28:30.231Z,12.85
2023-05-10T22:30:56.756Z,12.82
2023-05-10T22:33:23.128Z,12.84
2023-05-10T22:35:49.452Z,12.93
2023-05-10T22:38:15.814Z,12.96
2023-05-10T22:40:42.340Z,13.00
2023-05-10T22:43:08.768Z,13.19
2023-05-10T22:45:35.118Z,13.05
2023-05-10T22:48:04.975Z,13.08
2023-05-10T22:50:31.725Z,12.99
2023-05-10T22:52:58.046Z,13.12
2023-05-10T22:55:24.481Z,13.06
2023-05-10T22:57:51.750Z,13.03
2023-05-10T23:00:18.448Z,13.08
2023-05-10T23:02:45.283Z,13.28
2023-05-10T23:05:11.697Z,13.23
2023-05-10T23:07:38.230Z,13.31
2023-05-10T23:10:07.275Z,13.28
2023-05-10T23:12:33.835Z,13.49
2023-05-10T23:15:00.364Z,13.64
2023-05-10T23:17:26.722Z,13.56
2023-05-10T23:19:53.047Z,13.59
2023-05-10T23:22:19.377Z,13.53
2023-05-10T23:24:45.816Z,13.80
2023-05-10T23:27:12.197Z,13.71
2023-05-10T23:29:38.525Z,13.70
2023-05-10T23:32:05.364Z,13.52
2023-05-10T23:34:32.153Z,13.43
2023-05-10T23:36:58.480Z,13.73
2023-05-10T23:39:24.823Z,13.67
2023-05-10T23:41:51.745Z,13.52
2023-05-10T23:44:18.172Z,13.51
2023-05-10T23:46:44.538Z,13.54
2023-05-10T23:49:10.956Z,13.14
2023-05-10T23:51:37.264Z,13.17
2023-05-10T23:54:03.587Z,13.28
2023-05-10T23:56:29.905Z,13.22
2023-05-10T23:58:56.340Z,13.33
